Flight Track Log - Related Links

Times and Time Zones

All times are in EDT time to prevent confusion due to time zone crossing. See the SWA499 flight status page for this flight to view local times or setup timezone preferences in your user account.


Time Position Orientation Groundspeed Altitude Reporting Facility
EDT Latitude Longitude Course Direction KTS MPH feet Rate Location/Type
Sun 12:45:48 PM 39.7833 -104.6167 90° East 209 241 7,500  Level Denver TRACON
Sun 12:46:48 PM 39.7667 -104.5500 108° East 223 257 10,300 1,526 Climbing Denver TRACON
Sun 12:47:42 PM 39.7667 -104.4500 90° East 293 337 10,400 560 Climbing Denver TRACON
Sun 12:48:03 PM 39.7672 -104.4203 89° East 302 348 11,000 2,747 Climbing Denver Center
Sun 12:49:05 PM 39.7669 -104.2844 90° East 350 403 14,200 2,806 Climbing Denver Center
Sun 12:50:07 PM 39.7661 -104.1867 91° East 352 405 16,800 2,806 Climbing Denver Center
Sun 12:51:00 PM 39.7500 -103.8073 90° East  Level FlightAware Approximate
Sun 12:51:09 PM 39.7661 -104.0186 90° East 378 435 20,000  Level Denver Center
Sun 12:52:11 PM 39.7578 -103.8642 94° East 402 463 22,800 2,352 Climbing Denver Center
Sun 12:53:14 PM 39.7392 -103.7161 99° East 399 459 24,900 1,968 Climbing Denver Center
Sun 12:54:16 PM 39.7281 -103.5586 95° East 427 491 26,900 1,887 Climbing Denver Center
Sun 12:55:18 PM 39.7136 -103.3956 97° East 446 513 28,800 1,597 Climbing Denver Center
Sun 12:56:20 PM 39.7008 -103.2281 96° East 460 529 30,200 1,161 Climbing Denver Center
Sun 12:57:22 PM 39.6864 -103.0536 96° East 480 552 31,200 1,122 Climbing Denver Center
Sun 12:58:23 PM 39.6739 -102.9022 96° East 497 572 32,500 1,742 Climbing Denver Center
Sun 12:59:26 PM 39.6544 -102.6633 96° East 502 578 34,800 1,708 Climbing Denver Center
Sun 01:00:40 PM 39.6386 -102.4947 97° East 495 570 36,400 971 Climbing Denver Center
Sun 01:01:42 PM 39.6194 -102.2742 96° East 484 557 37,000 290 Climbing Denver Center
Sun 01:02:44 PM 39.6053 -102.1103 96° East 479 551 37,000  Level Denver Center
Sun 01:03:46 PM 39.5878 -101.9194 97° East 478 550 37,000  Level Denver Center
Sun 01:04:48 PM 39.5731 -101.7567 97° East 478 550 37,000  Level Denver Center
Sun 01:05:50 PM 39.5556 -101.5664 97° East 479 551 37,000  Level Denver Center
Sun 01:06:52 PM 39.5403 -101.4042 97° East 476 548 37,000  Level Denver Center
Sun 01:07:54 PM 39.5214 -101.2125 97° East 481 554 37,000  Level Denver Center
Sun 01:08:57 PM 39.5056 -101.0478 97° East 484 557 37,000  Level Denver Center
Sun 01:09:59 PM 39.4864 -100.8561 97° East 485 558 37,000  Level Denver Center
Sun 01:11:01 PM 39.4692 -100.6914 98° East 485 558 37,000  Level Denver Center
Sun 01:12:15 PM 39.4506 -100.4989 97° East 483 556 37,000  Level Denver Center
Sun 01:13:17 PM 39.4269 -100.2806 98° East 483 556 37,000  Level Denver Center
Sun 01:14:19 PM 39.4092 -100.1172 98° East 482 555 37,000  Level Denver Center
Sun 01:15:21 PM 39.3886 -99.9278 98° East 478 550 37,000  Level Denver Center
Sun 01:16:23 PM 39.3708 -99.7661 98° East 476 548 37,000  Level Denver Center
Sun 01:17:25 PM 39.3500 -99.5769 98° East 476 548 37,000  Level Denver Center
Sun 01:18:27 PM 39.3319 -99.4167 98° East 474 545 37,000  Level Denver Center
Sun 01:19:29 PM 39.3092 -99.2308 99° East 470 541 37,000  Level Denver Center
Sun 01:20:31 PM 39.2917 -99.0719 98° East 468 539 37,000  Level Denver Center
Sun 01:21:33 PM 39.2697 -98.8861 99° East 472 543 37,000  Level Denver Center
Sun 01:22:35 PM 39.2506 -98.7211 98° East 468 539 37,000 -145 Level Denver Center
Sun 01:23:37 PM 39.2306 -98.5556 99° East 468 539 36,700 -624 Descending Denver Center
Sun 01:24:40 PM 39.2106 -98.3894 99° East 470 541 35,700 -944 Descending Denver Center
Sun 01:25:06 PM 39.2019 -98.3125 98° East 475 547 35,300 -477 Descending Kansas City Center
Sun 01:26:08 PM 39.1808 -98.1436 99° East 477 549 35,000 -145 Descending Kansas City Center
Sun 01:27:10 PM 39.1597 -97.9739 99° East 477 549 35,000  Level Kansas City Center
Sun 01:28:12 PM 39.1369 -97.8022 100° East 474 545 35,000  Level Kansas City Center
Sun 01:29:14 PM 39.1131 -97.6186 99° East 466 536 35,000  Level Kansas City Center
Sun 01:30:16 PM 39.0928 -97.4644 100° East 458 527 35,000  Level Kansas City Center
Sun 01:31:18 PM 39.0689 -97.2828 100° East 459 528 35,000  Level Kansas City Center
Sun 01:32:20 PM 39.0478 -97.1300 100° East 456 525 35,000  Level Kansas City Center
Sun 01:33:22 PM 39.0267 -96.9533 99° East 449 517 35,000 -919 Level Kansas City Center
Sun 01:34:24 PM 39.0058 -96.8028 100° East 448 516 33,100 -2,371 Descending Kansas City Center
Sun 01:35:26 PM 38.9808 -96.6275 100° East 446 513 30,100 -2,371 Descending Kansas City Center
Sun 01:36:28 PM 38.9628 -96.4975 100° East 439 505 28,200 -2,177 Descending Kansas City Center
Sun 01:37:30 PM 38.9375 -96.3186 100° East 423 487 25,600 -2,226 Descending Kansas City Center
Sun 01:38:32 PM 38.9167 -96.1822 101° East 413 475 23,600 -2,032 Descending Kansas City Center
Sun 01:39:34 PM 38.8936 -96.0283 101° East 398 458 21,400 -1,968 Descending Kansas City Center
Sun 01:40:37 PM 38.8761 -95.9017 100° East 381 438 19,500 -1,872 Descending Kansas City Center
Sun 01:41:39 PM 38.8547 -95.7553 101° East 376 433 17,500 -1,935 Descending Kansas City Center
Sun 01:42:41 PM 38.8375 -95.6336 100° East 365 420 15,500 -2,129 Descending Kansas City Center
Sun 01:43:43 PM 38.8164 -95.4953 101° East 356 410 13,100 -1,694 Descending Kansas City Center
Sun 01:44:45 PM 38.8269 -95.3897 83° East 331 381 12,000 -1,113 Descending Kansas City Center
Sun 01:45:47 PM 38.8906 -95.2994 48° Northeast 301 346 10,800 -1,258 Descending Kansas City Center
Sun 01:46:49 PM 38.9308 -95.2244 55° Northeast 270 311 9,400 -1,694 Descending Kansas City Center
Sun 01:47:51 PM 38.9664 -95.1281 65° Northeast 267 307 7,300 -1,645 Descending Kansas City Center
Sun 01:48:53 PM 38.9969 -95.0489 64° Northeast 259 298 6,000 -1,210 Descending Kansas City Center
Sun 01:49:55 PM 39.0278 -94.9642 65° Northeast 238 274 4,800 -968 Descending Kansas City Center
Sun 01:50:57 PM 39.0544 -94.8911 65° Northeast 236 272 4,000 -387 Descending Kansas City Center
Sun 01:51:59 PM 39.0892 -94.8139 60° Northeast 223 257 4,000 -145 Level Kansas City Center
Sun 01:53:01 PM 39.1344 -94.7758 33° Northeast 203 234 3,700 -484 Descending Kansas City Center
Sun 01:54:03 PM 39.1881 -94.7606 12° North 177 204 3,000 -629 Descending Kansas City Center
Sun 01:55:05 PM 39.2278 -94.7486 13° North 156 180 2,400 -677 Descending Kansas City Center
Sun 01:56:07 PM 39.2675 -94.7372 13° North 134 154 1,600 -677 Descending Kansas City Center
Sun 01:57:09 PM 39.2947 -94.7286 14° North 128 147 1,000 -581 Descending Kansas City Center

Login

Don't have an account? Register now (free) for customized features, flight alerts, and more!